Map

Track Data

SID SEASON NUMBER BASIN SUBBASIN NAME ISO_TIME NATURE LAT LON WMO_WIND WMO_PRES WMO_AGENCY TRACK_TYPE DIST2LAND LANDFALL IFLAG USA_AGENCY USA_ATCF_ID USA_LAT USA_LON USA_RECORD USA_STATUS USA_WIND USA_PRES USA_SSHS USA_R34_NE USA_R34_SE USA_R34_SW USA_R34_NW USA_R50_NE USA_R50_SE USA_R50_SW USA_R50_NW USA_R64_NE USA_R64_SE USA_R64_SW USA_R64_NW USA_POCI USA_ROCI USA_RMW USA_EYE TOKYO_LAT TOKYO_LON TOKYO_GRADE TOKYO_WIND TOKYO_PRES TOKYO_R50_DIR TOKYO_R50_LONG TOKYO_R50_SHORT TOKYO_R30_DIR TOKYO_R30_LONG TOKYO_R30_SHORT TOKYO_LAND CMA_LAT CMA_LON CMA_CAT CMA_WIND CMA_PRES HKO_LAT HKO_LON HKO_CAT HKO_WIND HKO_PRES NEWDELHI_LAT NEWDELHI_LON NEWDELHI_GRADE NEWDELHI_WIND NEWDELHI_PRES NEWDELHI_CI NEWDELHI_DP NEWDELHI_POCI REUNION_LAT REUNION_LON REUNION_TYPE REUNION_WIND REUNION_PRES REUNION_TNUM REUNION_CI REUNION_RMW REUNION_R34_NE REUNION_R34_SE REUNION_R34_SW REUNION_R34_NW REUNION_R50_NE REUNION_R50_SE REUNION_R50_SW REUNION_R50_NW REUNION_R64_NE REUNION_R64_SE REUNION_R64_SW REUNION_R64_NW BOM_LAT BOM_LON BOM_TYPE BOM_WIND BOM_PRES BOM_TNUM BOM_CI BOM_RMW BOM_R34_NE BOM_R34_SE BOM_R34_SW BOM_R34_NW BOM_R50_NE BOM_R50_SE BOM_R50_SW BOM_R50_NW BOM_R64_NE BOM_R64_SE BOM_R64_SW BOM_R64_NW BOM_ROCI BOM_POCI BOM_EYE BOM_POS_METHOD BOM_PRES_METHOD NADI_LAT NADI_LON NADI_CAT NADI_WIND NADI_PRES WELLINGTON_LAT WELLINGTON_LON WELLINGTON_WIND WELLINGTON_PRES DS824_LAT DS824_LON DS824_STAGE DS824_WIND DS824_PRES TD9636_LAT TD9636_LON TD9636_STAGE TD9636_WIND TD9636_PRES TD9635_LAT TD9635_LON TD9635_WIND TD9635_PRES TD9635_ROCI NEUMANN_LAT NEUMANN_LON NEUMANN_CLASS NEUMANN_WIND NEUMANN_PRES MLC_LAT MLC_LON MLC_CLASS MLC_WIND MLC_PRES USA_GUST BOM_GUST BOM_GUST_PER REUNION_GUST REUNION_GUST_PER USA_SEAHGT USA_SEARAD_NE USA_SEARAD_SE USA_SEARAD_SW USA_SEARAD_NW STORM_SPEED STORM_DIR
1929192N20088 1929 41 NI BB NOT_NAMED 1929-07-11 00:00:00 TS 19.7000 88.2000 main 167 104 _________O____ -1 19.7000 88.2000 TC 30 12 293
1929192N20088 1929 41 NI BB NOT_NAMED 1929-07-11 03:00:00 TS 19.9405 87.6072 main 104 15 _________PO___ -1 20.0608 87.3108 TC 30 19.7000 88.2000 1 15 292
1929192N20088 1929 41 NI BB NOT_NAMED 1929-07-11 06:00:00 TS 20.2528 86.7517 main 10 0 _________OP___ -1 20.4000 86.4000 TC 30 20.0321 87.2792 1 18 290
1929192N20088 1929 41 NI BB NOT_NAMED 1929-07-11 09:00:00 TS 20.5581 85.8419 main 0 0 _________PP___ -1 20.7071 85.4570 TC 30 20.3595 86.3551 1 18 289
1929192N20088 1929 41 NI BB NOT_NAMED 1929-07-11 12:00:00 TS 20.8411 84.9643 main 0 0 _________OP___ -1 21.0000 84.5000 TC 30 20.6822 85.4285 1 18 289
1929192N20088 1929 41 NI BB NOT_NAMED 1929-07-11 15:00:00 TS 21.1534 84.0286 main 0 0 _________PO___ -1 21.3068 83.5572 TC 30 21.0000 84.5000 1 19 289
1929192N20088 1929 41 NI BB NOT_NAMED 1929-07-11 18:00:00 TS 21.4556 83.0836 main 0 0 _________OP___ -1 21.6000 82.6000 TC 30 21.3112 83.5672 1 19 288
1929192N20088 1929 41 NI BB NOT_NAMED 1929-07-11 21:00:00 TS 21.7389 82.1233 main 0 0 _________PP___ -1 21.8716 81.6297 TC 30 21.6063 82.6168 1 19 286
1929192N20088 1929 41 NI BB NOT_NAMED 1929-07-12 00:00:00 TS 21.9866 81.1165 main 0 0 _________OP___ -1 22.1000 80.6000 TC 30 21.8733 81.6330 1 20 283
1929192N20088 1929 41 NI BB NOT_NAMED 1929-07-12 03:00:00 TS 22.1861 80.0361 main 0 0 _________PO___ -1 22.2721 79.4722 TC 30 22.1000 80.6000 1 21 279
1929192N20088 1929 41 NI BB NOT_NAMED 1929-07-12 06:00:00 TS 22.3232 78.9045 main 0 0 _________OP___ -1 22.4000 78.3000 TC 30 22.2465 79.5091 1 21 277
1929192N20088 1929 41 NI AS NOT_NAMED 1929-07-12 09:00:00 TS 22.4308 77.7710 main 0 0 _________PP___ -1 22.5062 77.1721 TC 30 22.3554 78.3699 1 21 276
1929192N20088 1929 41 NI AS NOT_NAMED 1929-07-12 12:00:00 TS 22.5308 76.5981 main 0 0 _________OP___ -1 22.6000 76.0000 TC 30 22.4616 77.1962 1 22 275
1929192N20088 1929 41 NI AS NOT_NAMED 1929-07-12 15:00:00 TS 22.6275 75.3493 main 0 0 _________PO___ -1 22.6550 74.6987 TC 30 22.6000 76.0000 1 24 277
1929192N20088 1929 41 NI AS NOT_NAMED 1929-07-12 18:00:00 TS 22.8098 74.0008 main 0 0 _________OP___ -1 22.8000 73.4000 TC 30 22.8195 74.6017 1 25 281
1929192N20088 1929 41 NI AS NOT_NAMED 1929-07-12 21:00:00 TS 23.1245 72.6415 main 0 0 _________PP___ -1 23.1784 72.0722 TC 30 23.0707 73.2107 1 24 286
1929192N20088 1929 41 NI AS NOT_NAMED 1929-07-13 00:00:00 TS 23.4677 71.5444 main 0 0 _________OP___ -1 23.6000 71.1000 TC 30 23.3353 71.9889 1 17 292
1929192N20088 1929 41 NI AS NOT_NAMED 1929-07-13 03:00:00 TS 23.7355 70.9557 main 0 0 _________PO___ -1 23.8710 70.8114 TC 30 23.6000 71.1000 1 8 307
1929192N20088 1929 41 NI AS NOT_NAMED 1929-07-13 06:00:00 TS 23.9719 70.8105 main 0 0 _________OP___ -1 24.1000 70.9000 TC 30 23.8439 70.7210 1 5 346
1929192N20088 1929 41 NI AS NOT_NAMED 1929-07-13 09:00:00 TS 24.2217 70.8234 main 0 0 _________PP___ -1 24.3500 70.9624 TC 30 24.0934 70.6845 1 5 17
1929192N20088 1929 41 NI AS NOT_NAMED 1929-07-13 12:00:00 TS 24.4732 70.9779 main 0 0 _________OP___ -1 24.6000 71.1000 TC 30 24.3465 70.8559 1 6 32
1929192N20088 1929 41 NI AS NOT_NAMED 1929-07-13 15:00:00 TS 24.7250 71.1713 main 0 0 _________PO___ -1 24.8500 71.2425 TC 30 24.6000 71.1000 1 6 34
1929192N20088 1929 41 NI AS NOT_NAMED 1929-07-13 18:00:00 TS 24.9582 71.3462 main 0 0 _________OP___ -1 25.1000 71.4000 TC 30 24.8518 71.3058 1 6 32
1929192N20088 1929 41 NI AS NOT_NAMED 1929-07-13 21:00:00 TS 25.2013 71.4992 main 0 0 _________PP___ -1 25.3500 71.5524 TC 30 25.1021 71.4638 1 5 28
1929192N20088 1929 41 NI AS NOT_NAMED 1929-07-14 00:00:00 TS 25.4342 71.6265 main 0 0 _________OP___ -1 25.6000 71.7000 TC 30 25.3513 71.5898 1 4 25
1929192N20088 1929 41 NI AS NOT_NAMED 1929-07-14 03:00:00 NR 25.6000 71.7000 main 0 __________O___ -1 TC 25.6000 71.7000 1 4 24

About IBTrACS Database

This database is a web-friendly format of International Best Track Archive for Climate Stewardship (IBTrACS), a global best track data archive curated by NOAA dating back to 1842.

Updated: 2021-12-03